Time;durP1;ratioP1;P1;durP2;ratioP2;P2;SDS_P1;SDS_P2;PMS_P1;PMS_P2;Temp;Humidity;BMP_temperature;BMP_pressure;BME280_temperature;BME280_humidity;BME280_pressure;Samples;Min_cycle;Max_cycle;Signal;HPM_P1;HPM_P2
2022/01/16 00:01:46;;;;;;;21.13;15.13;;;5.40;99.90;;;;;;5032245;28;20273;-72
2022/01/16 00:04:12;;;;;;;14.45;12.38;;;5.40;99.90;;;;;;5033622;28;20287;-72
2022/01/16 00:06:42;;;;;;;14.07;12.57;;;5.40;99.90;;;;;;5050486;28;20331;-72
2022/01/16 00:09:08;;;;;;;13.85;12.45;;;5.40;99.90;;;;;;5032882;28;20179;-72
2022/01/16 00:11:37;;;;;;;12.50;11.20;;;5.50;99.90;;;;;;5014502;28;20210;-72
2022/01/16 00:14:04;;;;;;;12.98;11.68;;;5.40;99.90;;;;;;5023341;28;20182;-72
2022/01/16 00:16:31;;;;;;;13.32;12.02;;;5.50;99.90;;;;;;5051800;28;20621;-72
2022/01/16 00:18:58;;;;;;;14.13;12.63;;;5.50;99.90;;;;;;5033499;28;20170;-72
2022/01/16 00:21:26;;;;;;;13.30;11.27;;;5.50;99.90;;;;;;5033561;28;20201;-71
2022/01/16 00:23:53;;;;;;;13.40;12.10;;;5.60;99.90;;;;;;5050632;28;20622;-71
2022/01/16 00:26:20;;;;;;;12.27;11.07;;;5.50;99.90;;;;;;5017620;28;20232;-71
2022/01/16 00:28:49;;;;;;;15.27;11.13;;;5.10;99.90;;;;;;5051489;28;20605;-73
2022/01/16 00:31:16;;;;;;;14.05;11.38;;;5.40;99.90;;;;;;5051518;28;20213;-72
2022/01/16 00:33:44;;;;;;;12.32;11.13;;;5.40;99.90;;;;;;5051827;28;20638;-72
2022/01/16 00:36:11;;;;;;;12.30;11.10;;;5.40;99.90;;;;;;5050246;28;20177;-72
2022/01/16 00:38:43;;;;;;;14.57;12.23;;;5.40;99.90;;;;;;5030017;28;20533;-72
2022/01/16 00:41:13;;;;;;;13.23;11.80;;;5.40;99.90;;;;;;5037314;28;20162;-72
2022/01/16 00:43:39;;;;;;;12.25;10.85;;;5.40;99.90;;;;;;5055797;28;20225;-72
2022/01/16 00:46:05;;;;;;;12.23;10.63;;;5.00;99.90;;;;;;5053535;28;20220;-72
2022/01/16 00:48:30;;;;;;;12.23;11.03;;;5.50;99.90;;;;;;5037949;28;20169;-72
2022/01/16 00:50:57;;;;;;;11.93;10.73;;;4.90;99.90;;;;;;5030313;28;20209;-72
2022/01/16 00:53:22;;;;;;;13.65;12.20;;;5.30;99.90;;;;;;5035670;28;20269;-73
2022/01/16 00:55:48;;;;;;;13.13;11.30;;;5.30;99.90;;;;;;5017633;28;20650;-74
2022/01/16 00:58:14;;;;;;;14.13;12.10;;;5.30;99.90;;;;;;5035454;28;20190;-71
2022/01/16 01:00:40;;;;;;;13.27;11.87;;;5.30;99.90;;;;;;5017934;28;20178;-71
2022/01/16 01:03:06;;;;;;;14.20;12.07;;;5.40;99.90;;;;;;5035074;28;20535;-71
2022/01/16 01:05:33;;;;;;;13.25;11.70;;;5.40;99.90;;;;;;5035629;28;20396;-71
2022/01/16 01:08:00;;;;;;;15.57;12.50;;;5.40;99.90;;;;;;5050021;28;20220;-72
2022/01/16 01:10:35;;;;;;;14.73;12.57;;;5.40;99.90;;;;;;5037226;28;20199;-72
2022/01/16 01:13:22;;;;;;;14.43;11.98;;;5.40;99.90;;;;;;5034368;28;20193;-72
2022/01/16 01:15:52;;;;;;;14.70;12.68;;;5.40;99.90;;;;;;5035460;28;20170;-72
2022/01/16 01:18:20;;;;;;;15.82;12.50;;;5.40;99.90;;;;;;5035239;28;20176;-72
2022/01/16 01:20:49;;;;;;;14.20;12.40;;;5.30;99.90;;;;;;5034899;28;20184;-72
2022/01/16 01:23:15;;;;;;;16.20;12.77;;;5.30;99.90;;;;;;5018193;28;20276;-72
2022/01/16 01:25:42;;;;;;;13.32;11.93;;;5.30;99.90;;;;;;5036595;28;20285;-72
2022/01/16 01:28:09;;;;;;;15.77;12.55;;;4.90;99.90;;;;;;5053980;28;20637;-72
2022/01/16 01:30:35;;;;;;;14.68;11.40;;;4.90;99.90;;;;;;5054539;28;20285;-72
2022/01/16 01:33:01;;;;;;;14.25;11.43;;;5.30;99.90;;;;;;5054043;28;20190;-72
2022/01/16 01:35:28;;;;;;;14.20;11.27;;;4.80;99.90;;;;;;5037477;28;20524;-72
2022/01/16 01:37:54;;;;;;;10.95;9.85;;;5.30;99.90;;;;;;5054492;28;20181;-74
2022/01/16 01:40:25;;;;;;;15.30;11.13;;;5.30;99.90;;;;;;5037941;28;20194;-72
2022/01/16 01:51:19;;;;;;;9.90;8.95;;;5.30;99.90;;;;;;5048435;28;20251;-72
2022/01/16 01:53:46;;;;;;;9.82;8.82;;;5.00;99.90;;;;;;5053075;28;20265;-71
2022/01/16 01:56:17;;;;;;;11.77;9.77;;;5.40;99.90;;;;;;5035887;28;20182;-72
2022/01/16 01:58:43;;;;;;;9.98;8.65;;;5.40;99.90;;;;;;5054501;28;20167;-72
2022/01/16 02:01:09;;;;;;;12.10;9.40;;;5.40;99.90;;;;;;5039387;28;20187;-72
2022/01/16 02:06:18;;;;;;;10.82;9.48;;;5.50;99.90;;;;;;5033637;28;20393;-72
2022/01/16 02:08:45;;;;;;;10.32;9.15;;;5.30;99.90;;;;;;5034393;28;20693;-72
2022/01/16 02:11:15;;;;;;;10.77;9.35;;;5.50;99.90;;;;;;5033192;28;20208;-71
2022/01/16 02:14:05;;;;;;;10.00;8.85;;;5.20;99.90;;;;;;5021800;28;20583;-72
2022/01/16 02:30:50;;;;;;;10.50;8.40;;;5.80;99.90;;;;;;5033077;28;20336;-72
2022/01/16 02:35:35;;;;;;;10.98;8.85;;;5.90;99.90;;;;;;5037670;28;20502;-72
2022/01/16 02:38:01;;;;;;;10.65;8.48;;;5.90;99.90;;;;;;5052692;28;20189;-72
2022/01/16 02:40:28;;;;;;;10.05;8.90;;;6.10;99.90;;;;;;5053891;28;20179;-72
2022/01/16 02:42:54;;;;;;;9.75;8.75;;;6.10;99.90;;;;;;5039242;28;20218;-74
2022/01/16 02:45:30;;;;;;;11.40;9.93;;;6.10;99.90;;;;;;5063197;28;20635;-71
2022/01/16 02:47:58;;;;;;;9.03;8.03;;;6.10;99.90;;;;;;5053228;28;20159;-74
2022/01/16 02:50:25;;;;;;;10.95;8.65;;;6.20;99.90;;;;;;5053410;28;20450;-72
2022/01/16 02:52:51;;;;;;;13.57;8.57;;;6.20;99.90;;;;;;5054450;28;20234;-72
2022/01/16 02:55:20;;;;;;;9.73;8.53;;;6.30;99.90;;;;;;5052638;28;20400;-72
2022/01/16 02:57:46;;;;;;;9.87;8.17;;;6.30;99.90;;;;;;5053308;28;20406;-72
2022/01/16 03:00:12;;;;;;;12.15;9.15;;;6.30;99.90;;;;;;5052173;28;20421;-72
2022/01/16 03:02:38;;;;;;;11.50;8.90;;;6.30;99.90;;;;;;5053320;28;20261;-72
2022/01/16 03:05:05;;;;;;;11.70;8.73;;;6.40;99.90;;;;;;5051828;28;20571;-72
2022/01/16 03:07:31;;;;;;;10.80;8.45;;;6.40;99.90;;;;;;5051842;28;20628;-72
2022/01/16 03:12:54;;;;;;;10.93;9.50;;;6.50;99.90;;;;;;5054198;28;20185;-72
2022/01/16 03:15:20;;;;;;;15.52;10.57;;;6.60;99.90;;;;;;5072053;28;20486;-71
2022/01/16 03:23:10;;;;;;;16.30;11.00;;;6.50;99.90;;;;;;5072164;28;20389;-71
2022/01/16 03:25:36;;;;;;;13.23;10.80;;;6.50;99.90;;;;;;5073151;28;20464;-72
2022/01/16 03:28:02;;;;;;;15.10;10.77;;;6.40;99.90;;;;;;5072000;28;20403;-72
2022/01/16 03:30:28;;;;;;;14.90;11.20;;;6.50;99.90;;;;;;5072554;28;20528;-72
2022/01/16 03:32:54;;;;;;;15.00;11.67;;;6.60;99.90;;;;;;5072670;28;20436;-72
2022/01/16 03:35:19;;;;;;;16.63;12.03;;;6.50;99.90;;;;;;5071718;28;21095;-72
2022/01/16 03:37:45;;;;;;;15.47;11.20;;;6.60;99.90;;;;;;5072416;28;20503;-72
2022/01/16 03:40:11;;;;;;;15.07;11.90;;;6.30;99.90;;;;;;5071844;28;20182;-72
2022/01/16 03:42:39;;;;;;;19.70;14.00;;;6.70;99.90;;;;;;5056971;28;20183;-72
2022/01/16 03:45:06;;;;;;;17.53;12.03;;;6.60;99.90;;;;;;5051757;28;20388;-72
2022/01/16 03:47:32;;;;;;;17.13;12.93;;;6.60;99.90;;;;;;5052247;28;20818;-72
2022/01/16 03:49:58;;;;;;;17.70;13.60;;;6.30;99.90;;;;;;5052060;28;20757;-74
2022/01/16 03:52:24;;;;;;;21.50;15.10;;;6.40;99.90;;;;;;5051826;28;20425;-72
2022/01/16 03:54:49;;;;;;;21.90;14.53;;;6.60;99.90;;;;;;5052449;28;20393;-72
2022/01/16 03:57:15;;;;;;;20.83;14.37;;;6.60;99.90;;;;;;5051525;28;20194;-72
2022/01/16 03:59:41;;;;;;;23.10;15.40;;;6.50;99.90;;;;;;5052823;28;20420;-72
2022/01/16 04:02:07;;;;;;;20.67;14.30;;;6.60;99.90;;;;;;5051272;28;20183;-72
2022/01/16 04:04:33;;;;;;;19.97;13.47;;;6.60;99.90;;;;;;5052055;28;20187;-72
2022/01/16 04:06:59;;;;;;;21.83;14.83;;;6.60;99.90;;;;;;5052522;28;20604;-72
2022/01/16 04:09:26;;;;;;;19.43;13.93;;;6.60;99.90;;;;;;5055318;28;20422;-72
2022/01/16 04:11:55;;;;;;;18.30;13.37;;;6.70;99.90;;;;;;5071022;28;20551;-72
2022/01/16 04:15:31;;;;;;;21.70;14.40;;;6.70;99.90;;;;;;5071194;28;20742;-72
2022/01/16 04:17:08;;;;;;;24.50;14.50;;;6.80;99.90;;;;;;5070323;28;20435;-71
2022/01/16 04:19:35;;;;;;;22.57;14.77;;;6.70;99.90;;;;;;5054221;28;20419;-72
2022/01/16 04:22:04;;;;;;;22.33;13.70;;;6.80;99.90;;;;;;5071966;28;20727;-74
2022/01/16 04:24:29;;;;;;;19.53;13.83;;;6.30;99.90;;;;;;5072217;28;20444;-71
2022/01/16 04:26:55;;;;;;;24.47;14.17;;;6.30;99.90;;;;;;5072153;28;20416;-72
2022/01/16 04:29:21;;;;;;;20.50;12.97;;;6.70;99.90;;;;;;5069896;28;20205;-72
2022/01/16 04:31:47;;;;;;;19.23;13.50;;;6.70;99.90;;;;;;5070725;28;20222;-71
2022/01/16 04:34:12;;;;;;;24.03;14.47;;;6.20;99.90;;;;;;5071300;28;20276;-72
2022/01/16 04:36:38;;;;;;;17.63;13.33;;;6.50;99.90;;;;;;5067865;28;20178;-72
2022/01/16 04:39:12;;;;;;;16.53;12.70;;;6.50;99.90;;;;;;5051048;28;20179;-74
2022/01/16 04:44:22;;;;;;;19.07;13.90;;;6.50;99.90;;;;;;5051269;28;20500;-71
2022/01/16 04:46:48;;;;;;;18.30;12.87;;;6.60;99.90;;;;;;5050368;28;20417;-72
2022/01/16 04:49:14;;;;;;;17.40;13.60;;;6.60;99.90;;;;;;5049443;28;20418;-72
2022/01/16 04:51:39;;;;;;;20.70;13.90;;;6.60;99.90;;;;;;5067120;28;20202;-71
2022/01/16 04:54:05;;;;;;;18.50;13.40;;;6.20;99.90;;;;;;5071400;28;20848;-84
2022/01/16 04:56:31;;;;;;;18.50;13.30;;;6.60;99.90;;;;;;5072281;28;20178;-70
2022/01/16 04:58:57;;;;;;;19.67;13.77;;;6.60;99.90;;;;;;5071849;28;20175;-72
2022/01/16 05:01:23;;;;;;;20.80;14.37;;;6.70;99.90;;;;;;5070104;28;20203;-72
2022/01/16 05:03:49;;;;;;;21.27;14.53;;;6.70;99.90;;;;;;5070535;28;20420;-72
2022/01/16 05:06:16;;;;;;;22.27;14.90;;;6.80;99.90;;;;;;5070209;28;20923;-72
2022/01/16 05:08:41;;;;;;;20.87;14.80;;;7.00;99.90;;;;;;5071581;28;20422;-72
2022/01/16 05:11:08;;;;;;;20.57;14.87;;;7.10;99.90;;;;;;5052851;28;20461;-73
2022/01/16 05:18:47;;;;;;;23.53;16.70;;;7.50;99.90;;;;;;5071399;28;20778;-70
2022/01/16 05:21:13;;;;;;;22.27;14.20;;;7.50;99.90;;;;;;5070779;28;20426;-71
2022/01/16 05:23:41;;;;;;;23.20;15.87;;;7.50;99.90;;;;;;5070272;28;20172;-70
2022/01/16 05:26:07;;;;;;;24.23;16.17;;;7.50;99.90;;;;;;5055080;28;20540;-82
2022/01/16 05:28:33;;;;;;;23.97;16.23;;;7.50;99.90;;;;;;5054570;28;20779;-71
2022/01/16 05:30:59;;;;;;;24.87;16.43;;;7.40;99.90;;;;;;5054710;28;20459;-71
2022/01/16 05:33:25;;;;;;;26.37;17.60;;;7.60;99.90;;;;;;5054234;28;21154;-71
2022/01/16 05:35:51;;;;;;;26.30;17.57;;;7.40;99.90;;;;;;5055766;28;20183;-70
2022/01/16 05:38:17;;;;;;;27.73;17.50;;;7.40;99.90;;;;;;5069585;28;20181;-73
2022/01/16 05:40:43;;;;;;;31.83;20.00;;;7.20;99.90;;;;;;5074862;28;20429;-73
2022/01/16 05:43:09;;;;;;;26.60;18.07;;;7.50;99.90;;;;;;5066521;28;20454;-78
2022/01/16 05:45:35;;;;;;;28.97;18.10;;;7.60;99.90;;;;;;5036318;28;20451;-72
2022/01/16 05:48:01;;;;;;;29.43;18.50;;;7.60;99.90;;;;;;5036410;28;20432;-72
2022/01/16 05:50:28;;;;;;;29.83;18.97;;;7.70;99.90;;;;;;5053789;28;20500;-73
2022/01/16 05:52:53;;;;;;;30.80;19.80;;;7.90;99.90;;;;;;5054073;28;20191;-73
2022/01/16 05:55:20;;;;;;;33.67;21.47;;;8.00;99.90;;;;;;5044549;28;20433;-73
2022/01/16 05:57:46;;;;;;;31.33;20.00;;;8.00;99.90;;;;;;5049989;28;20209;-73
2022/01/16 06:00:14;;;;;;;31.23;19.77;;;8.10;99.90;;;;;;5051730;28;20496;-73
2022/01/16 06:02:42;;;;;;;32.00;19.80;;;8.10;99.90;;;;;;5022165;28;20414;-73
2022/01/16 06:05:09;;;;;;;31.93;20.50;;;8.20;99.90;;;;;;5034254;28;20417;-78
2022/01/16 06:07:34;;;;;;;32.60;20.97;;;8.20;99.90;;;;;;5022042;28;20173;-73
2022/01/16 06:10:00;;;;;;;31.10;20.90;;;8.30;99.90;;;;;;5053482;28;20421;-73
2022/01/16 06:12:26;;;;;;;33.80;20.83;;;8.30;99.90;;;;;;5051146;28;20373;-73
2022/01/16 06:14:52;;;;;;;35.03;23.40;;;8.40;99.90;;;;;;5036519;28;20428;-72
2022/01/16 06:17:17;;;;;;;36.47;22.23;;;8.40;99.90;;;;;;5018908;28;20189;-73
2022/01/16 06:19:43;;;;;;;35.67;21.63;;;8.50;99.90;;;;;;5053780;28;20527;-73
2022/01/16 06:22:09;;;;;;;34.47;23.23;;;8.60;99.90;;;;;;5039343;28;20182;-80
2022/01/16 06:24:34;;;;;;;36.53;23.03;;;8.50;99.90;;;;;;5033476;28;20186;-69
2022/01/16 06:27:00;;;;;;;36.27;24.63;;;8.50;99.90;;;;;;5034260;28;20178;-69
2022/01/16 06:29:26;;;;;;;37.90;23.97;;;8.50;99.90;;;;;;4998846;28;20661;-69
2022/01/16 06:31:52;;;;;;;38.73;25.37;;;8.30;99.90;;;;;;5051244;28;20208;-69
2022/01/16 06:34:17;;;;;;;42.63;24.77;;;8.10;99.90;;;;;;5053355;28;20186;-69
2022/01/16 06:36:43;;;;;;;39.60;26.40;;;7.70;99.90;;;;;;5053297;28;20177;-69
2022/01/16 06:39:11;;;;;;;42.33;25.20;;;8.00;99.90;;;;;;5023414;28;20617;-81
2022/01/16 06:41:38;;;;;;;41.80;24.10;;;7.90;99.90;;;;;;5053723;28;20396;-69
2022/01/16 06:44:04;;;;;;;38.97;25.70;;;7.90;99.90;;;;;;5053556;28;20935;-69
2022/01/16 06:46:31;;;;;;;40.40;26.70;;;7.70;99.90;;;;;;5034764;28;20418;-70
2022/01/16 06:48:56;;;;;;;39.73;25.00;;;7.60;99.90;;;;;;5053358;28;20492;-69
2022/01/16 06:51:24;;;;;;;42.17;26.67;;;7.60;99.90;;;;;;5050566;28;20553;-69
2022/01/16 06:53:53;;;;;;;42.63;25.80;;;7.70;99.90;;;;;;5047497;28;20954;-69
2022/01/16 06:56:20;;;;;;;46.37;26.33;;;7.70;99.90;;;;;;5032531;28;20411;-69
2022/01/16 06:58:46;;;;;;;42.87;28.20;;;7.70;99.90;;;;;;5043089;28;20428;-69
2022/01/16 07:01:13;;;;;;;42.77;25.90;;;7.70;99.90;;;;;;5035246;28;20485;-81
2022/01/16 07:03:40;;;;;;;43.47;25.67;;;7.70;99.90;;;;;;5037916;28;20429;-70
2022/01/16 07:06:06;;;;;;;42.90;27.30;;;7.60;99.90;;;;;;5032336;28;20765;-69
2022/01/16 07:08:31;;;;;;;43.40;26.20;;;7.60;99.90;;;;;;5016085;28;20496;-69
2022/01/16 07:10:59;;;;;;;47.60;29.60;;;7.50;99.90;;;;;;5034872;28;20208;-72
2022/01/16 07:13:25;;;;;;;44.57;27.80;;;7.60;99.90;;;;;;5033278;28;20192;-69
2022/01/16 07:15:51;;;;;;;43.73;27.10;;;7.50;99.90;;;;;;5040358;28;20459;-69
2022/01/16 07:18:17;;;;;;;41.93;26.70;;;7.50;99.90;;;;;;5050495;28;20458;-69
2022/01/16 07:20:45;;;;;;;50.50;29.47;;;7.50;99.90;;;;;;5052619;28;20532;-69
2022/01/16 07:23:14;;;;;;;42.73;26.67;;;7.50;99.90;;;;;;5049325;28;20427;-80
2022/01/16 07:25:44;;;;;;;39.37;25.93;;;7.50;99.90;;;;;;5052448;28;20427;-69
2022/01/16 07:28:10;;;;;;;41.23;25.80;;;7.60;99.90;;;;;;5052526;28;20402;-80
2022/01/16 07:30:37;;;;;;;45.23;27.07;;;7.50;99.90;;;;;;5016629;28;20464;-69
2022/01/16 07:33:04;;;;;;;45.10;28.43;;;7.50;99.90;;;;;;5032788;28;20515;-69
2022/01/16 07:35:30;;;;;;;44.23;27.43;;;7.60;99.90;;;;;;5031866;28;20465;-69
2022/01/16 07:37:56;;;;;;;44.17;27.47;;;7.60;99.90;;;;;;5032362;28;20413;-69
2022/01/16 07:40:22;;;;;;;41.90;26.50;;;7.50;99.90;;;;;;5032126;28;20498;-69
2022/01/16 07:42:48;;;;;;;45.37;27.33;;;7.50;99.90;;;;;;5036802;28;20461;-69
2022/01/16 07:45:14;;;;;;;43.10;26.20;;;7.50;99.90;;;;;;5063596;28;20525;-80
2022/01/16 07:47:40;;;;;;;43.53;25.70;;;7.50;99.90;;;;;;5065599;28;20444;-69
2022/01/16 07:50:07;;;;;;;45.83;26.33;;;7.30;99.90;;;;;;5069023;28;20431;-68
2022/01/16 07:52:33;;;;;;;43.37;27.50;;;7.60;99.90;;;;;;5070335;28;20190;-70
2022/01/16 07:54:59;;;;;;;42.30;27.33;;;7.60;99.90;;;;;;5059968;28;20421;-69
2022/01/16 07:57:24;;;;;;;39.80;26.60;;;7.70;99.90;;;;;;5071794;28;20451;-69
2022/01/16 07:59:51;;;;;;;37.50;24.93;;;7.60;99.90;;;;;;5072476;28;20172;-69
2022/01/16 08:02:17;;;;;;;44.13;27.47;;;7.60;99.90;;;;;;5071741;28;20417;-72
2022/01/16 08:04:43;;;;;;;43.40;27.13;;;7.50;99.90;;;;;;5059282;28;20438;-69
2022/01/16 08:07:10;;;;;;;43.30;27.37;;;7.50;99.90;;;;;;5050725;28;20411;-71
2022/01/16 08:09:37;;;;;;;42.03;27.90;;;7.50;99.90;;;;;;5052309;28;20508;-71
2022/01/16 08:12:07;;;;;;;42.50;26.33;;;7.50;99.90;;;;;;5068208;28;20457;-72
2022/01/16 08:14:34;;;;;;;43.70;26.73;;;7.50;99.90;;;;;;5071635;28;20416;-69
2022/01/16 08:17:00;;;;;;;42.23;27.00;;;7.60;99.90;;;;;;5071993;28;20417;-68
2022/01/16 08:19:27;;;;;;;44.30;26.60;;;7.60;99.90;;;;;;5068815;28;20417;-68
2022/01/16 08:21:52;;;;;;;39.33;28.13;;;7.60;99.90;;;;;;5070900;28;20423;-70
2022/01/16 08:24:18;;;;;;;50.10;31.27;;;7.60;99.90;;;;;;5067150;28;20448;-70
2022/01/16 08:26:44;;;;;;;48.37;28.43;;;7.50;99.90;;;;;;5066715;28;20194;-70
2022/01/16 08:29:10;;;;;;;43.57;27.23;;;7.60;99.90;;;;;;5064876;28;20262;-71
2022/01/16 08:31:36;;;;;;;43.33;29.23;;;7.50;99.90;;;;;;5065364;28;20759;-69
2022/01/16 08:34:02;;;;;;;39.87;26.20;;;7.50;99.90;;;;;;5062839;28;20394;-69
2022/01/16 08:36:28;;;;;;;46.47;30.77;;;7.50;99.90;;;;;;5062561;28;20182;-69
2022/01/16 08:38:54;;;;;;;47.23;28.90;;;7.50;99.90;;;;;;5062988;28;20420;-69
2022/01/16 08:41:21;;;;;;;44.00;27.67;;;7.40;99.90;;;;;;5033161;28;20407;-70
2022/01/16 08:43:47;;;;;;;45.80;29.00;;;7.30;99.90;;;;;;5047140;28;20452;-69
2022/01/16 08:46:13;;;;;;;43.10;28.10;;;7.40;99.90;;;;;;5051796;28;20415;-70
2022/01/16 08:48:39;;;;;;;45.67;27.00;;;7.50;99.90;;;;;;5016659;28;20428;-70
2022/01/16 08:51:06;;;;;;;45.53;28.67;;;7.50;99.90;;;;;;5044704;28;20452;-72
2022/01/16 08:53:31;;;;;;;46.03;29.47;;;7.50;99.90;;;;;;5030820;28;20919;-71
2022/01/16 08:55:58;;;;;;;41.20;26.87;;;7.50;99.90;;;;;;5041934;28;20566;-71
2022/01/16 08:58:25;;;;;;;42.27;28.07;;;7.60;99.90;;;;;;5032698;28;20233;-71
2022/01/16 09:00:50;;;;;;;45.60;29.30;;;7.60;99.90;;;;;;5033476;28;20427;-71
2022/01/16 09:03:21;;;;;;;43.53;27.47;;;7.60;99.90;;;;;;5053365;28;20445;-71
2022/01/16 09:05:48;;;;;;;45.47;27.50;;;7.50;99.90;;;;;;5043704;28;20424;-71
2022/01/16 09:08:15;;;;;;;45.17;29.03;;;7.50;99.90;;;;;;5035457;28;20499;-71
2022/01/16 09:10:41;;;;;;;41.77;27.20;;;7.50;99.90;;;;;;5034716;28;20525;-71
2022/01/16 09:13:11;;;;;;;45.10;27.27;;;7.50;99.90;;;;;;5035160;28;20884;-70
2022/01/16 09:15:38;;;;;;;41.23;26.40;;;7.40;99.90;;;;;;5017206;28;20522;-70
2022/01/16 09:18:05;;;;;;;46.57;30.07;;;7.40;99.90;;;;;;5035298;28;20416;-71
2022/01/16 09:20:30;;;;;;;47.80;28.47;;;7.30;99.90;;;;;;5041473;28;20429;-72
2022/01/16 09:22:56;;;;;;;45.63;29.63;;;7.70;99.90;;;;;;5037217;28;20417;-72
2022/01/16 09:25:22;;;;;;;46.77;29.40;;;8.40;99.90;;;;;;5054627;28;20495;-72
2022/01/16 09:27:49;;;;;;;43.50;29.93;;;9.00;99.90;;;;;;5054777;28;20264;-70
2022/01/16 09:30:15;;;;;;;37.67;27.30;;;9.60;99.90;;;;;;5037058;28;20446;-73
2022/01/16 09:32:41;;;;;;;41.03;27.13;;;9.90;99.90;;;;;;5054231;28;20539;-71
2022/01/16 09:35:08;;;;;;;41.47;27.10;;;9.90;99.90;;;;;;5054515;28;20455;-72
2022/01/16 09:37:34;;;;;;;41.40;27.60;;;9.50;99.90;;;;;;5054366;28;20169;-71
2022/01/16 09:40:00;;;;;;;76.30;51.40;;;9.30;99.70;;;;;;5036901;28;20561;-71
2022/01/16 09:42:27;;;;;;;316.57;198.43;;;9.10;99.90;;;;;;5040357;28;20413;-73
2022/01/16 09:44:53;;;;;;;47.80;30.60;;;8.90;99.90;;;;;;5034621;28;20874;-71
2022/01/16 09:47:19;;;;;;;43.57;28.50;;;8.70;99.90;;;;;;5016809;28;20421;-71
2022/01/16 09:49:46;;;;;;;46.07;27.50;;;8.50;99.90;;;;;;5048759;28;20910;-70
2022/01/16 09:52:12;;;;;;;45.00;27.73;;;8.30;99.90;;;;;;5054631;28;20455;-71
2022/01/16 09:54:39;;;;;;;39.90;26.70;;;8.20;99.90;;;;;;5053803;28;21295;-70
2022/01/16 09:57:06;;;;;;;39.00;26.47;;;8.20;99.90;;;;;;5054612;28;20435;-73
2022/01/16 09:59:33;;;;;;;35.83;25.23;;;8.10;99.90;;;;;;5053745;28;20887;-73
2022/01/16 10:01:58;;;;;;;43.23;28.57;;;8.00;99.90;;;;;;5022137;28;20496;-73
2022/01/16 10:04:36;;;;;;;41.50;25.87;;;7.90;99.90;;;;;;5033506;28;20403;-74
2022/01/16 10:07:14;;;;;;;38.80;26.40;;;7.90;99.90;;;;;;5034648;28;20186;-74
2022/01/16 10:09:43;;;;;;;37.77;25.67;;;7.80;99.90;;;;;;5033912;28;20640;-73
2022/01/16 10:12:17;;;;;;;40.20;26.03;;;7.80;99.90;;;;;;5034036;28;20459;-73
2022/01/16 10:14:49;;;;;;;35.23;24.57;;;7.80;99.90;;;;;;5032585;28;20418;-73
2022/01/16 10:17:21;;;;;;;37.10;25.03;;;7.80;99.90;;;;;;5016532;28;20507;-73
2022/01/16 10:19:58;;;;;;;40.60;25.33;;;7.80;99.90;;;;;;5033471;28;20873;-73
2022/01/16 10:22:35;;;;;;;34.70;24.90;;;7.80;99.90;;;;;;5033154;28;20983;-73
2022/01/16 10:25:03;;;;;;;41.70;26.17;;;7.80;99.90;;;;;;5034445;28;20408;-74
2022/01/16 10:27:34;;;;;;;37.27;25.30;;;7.80;99.90;;;;;;5048999;28;20433;-73
2022/01/16 10:30:02;;;;;;;38.67;25.47;;;7.80;99.90;;;;;;5053603;28;20429;-73
2022/01/16 10:32:32;;;;;;;34.97;24.53;;;7.80;99.90;;;;;;5030021;28;20458;-73
2022/01/16 10:35:09;;;;;;;36.13;25.20;;;7.90;99.90;;;;;;5053416;28;20438;-73
2022/01/16 10:37:35;;;;;;;34.33;26.37;;;7.80;99.90;;;;;;5045080;28;20947;-72
2022/01/16 10:40:03;;;;;;;235.47;129.23;;;7.70;99.90;;;;;;5053492;28;20418;-72
2022/01/16 10:42:30;;;;;;;379.93;262.47;;;7.80;99.90;;;;;;5050810;28;20447;-72
2022/01/16 10:45:12;;;;;;;41.67;29.57;;;7.80;99.90;;;;;;5053376;28;20468;-74
2022/01/16 10:47:53;;;;;;;36.60;24.50;;;7.90;99.90;;;;;;5010725;28;20762;-74
2022/01/16 10:50:22;;;;;;;35.50;23.57;;;7.90;99.90;;;;;;5050173;28;20901;-73
2022/01/16 10:53:02;;;;;;;33.30;24.27;;;7.80;99.90;;;;;;5052759;28;20426;-74
2022/01/16 10:55:36;;;;;;;34.47;23.00;;;7.80;99.90;;;;;;5036596;28;20429;-74
2022/01/16 10:58:03;;;;;;;30.93;23.43;;;7.90;99.90;;;;;;5033627;28;20412;-74
2022/01/16 11:00:29;;;;;;;33.17;23.90;;;7.90;99.90;;;;;;5033431;28;20477;-73
2022/01/16 11:03:02;;;;;;;36.67;23.30;;;7.80;99.90;;;;;;5032755;28;20905;-73
2022/01/16 11:05:33;;;;;;;33.50;24.13;;;7.80;99.90;;;;;;5052688;28;20165;-73
2022/01/16 11:08:12;;;;;;;33.90;23.67;;;8.00;99.90;;;;;;5052355;28;20415;-73
2022/01/16 11:10:54;;;;;;;33.03;22.87;;;8.00;99.90;;;;;;5050677;28;20473;-73
2022/01/16 11:13:23;;;;;;;36.50;23.33;;;7.80;99.90;;;;;;5036875;28;20476;-73
2022/01/16 11:15:54;;;;;;;31.67;22.27;;;8.00;99.90;;;;;;5032299;28;20413;-73
2022/01/16 11:18:24;;;;;;;34.37;22.47;;;8.00;99.90;;;;;;5032764;28;20401;-73
2022/01/16 11:23:44;;;;;;;37.10;22.87;;;8.10;99.90;;;;;;5048660;28;20412;-73
2022/01/16 11:26:10;;;;;;;28.60;23.17;;;8.00;99.90;;;;;;5051969;28;20389;-74
2022/01/16 11:28:38;;;;;;;30.90;22.03;;;8.10;99.90;;;;;;5033929;28;20904;-73
2022/01/16 11:31:11;;;;;;;35.73;22.53;;;8.10;99.90;;;;;;5015051;28;20468;-73
2022/01/16 11:33:39;;;;;;;33.30;22.80;;;8.10;99.90;;;;;;5031952;28;20405;-73
2022/01/16 11:36:28;;;;;;;38.87;24.43;;;8.10;99.90;;;;;;5032441;28;20735;-73
2022/01/16 11:38:57;;;;;;;104.77;70.60;;;8.00;99.90;;;;;;5032875;28;20416;-73
2022/01/16 11:41:35;;;;;;;294.13;185.13;;;7.90;99.90;;;;;;5032935;28;20433;-72
2022/01/16 11:44:06;;;;;;;45.93;26.20;;;8.20;99.90;;;;;;5039161;28;20463;-73
2022/01/16 11:46:34;;;;;;;33.97;23.10;;;8.20;99.90;;;;;;5049014;28;20427;-73
2022/01/16 11:49:03;;;;;;;31.17;21.47;;;8.20;99.90;;;;;;5050844;28;20768;-72
2022/01/16 11:51:35;;;;;;;33.57;21.83;;;8.20;99.90;;;;;;5051648;28;20463;-73
2022/01/16 11:54:08;;;;;;;33.90;23.00;;;8.20;99.90;;;;;;5045254;28;20435;-72
2022/01/16 11:56:40;;;;;;;35.10;22.30;;;8.30;99.90;;;;;;5033198;28;20424;-72
2022/01/16 11:59:14;;;;;;;34.57;22.60;;;8.30;99.90;;;;;;5051983;28;20472;-73
2022/01/16 12:01:44;;;;;;;32.47;22.20;;;8.20;99.90;;;;;;5051318;28;20435;-74
2022/01/16 12:04:28;;;;;;;30.87;22.10;;;8.20;99.90;;;;;;5048629;28;20420;-73
2022/01/16 12:07:06;;;;;;;39.23;22.90;;;8.20;99.90;;;;;;5051952;28;20458;-73
2022/01/16 12:10:19;;;;;;;34.33;22.30;;;8.20;99.90;;;;;;5051375;28;20392;-73
2022/01/16 12:12:20;;;;;;;34.67;22.27;;;8.20;99.90;;;;;;5034525;28;20532;-73
2022/01/16 12:15:05;;;;;;;37.43;23.97;;;8.30;99.90;;;;;;5043699;28;20421;-76
2022/01/16 12:17:30;;;;;;;37.83;24.23;;;8.30;99.90;;;;;;5031405;28;20181;-73
2022/01/16 12:20:17;;;;;;;36.33;22.47;;;8.30;99.90;;;;;;5014005;28;20424;-75
2022/01/16 12:23:04;;;;;;;36.03;22.93;;;8.40;99.90;;;;;;5033168;28;20188;-77
2022/01/16 12:25:44;;;;;;;32.20;21.67;;;8.30;99.90;;;;;;5027223;28;20447;-73
2022/01/16 12:28:18;;;;;;;36.63;23.50;;;8.40;99.90;;;;;;5032018;28;20455;-73
2022/01/16 12:30:52;;;;;;;32.80;22.80;;;8.50;99.90;;;;;;5039010;28;20467;-73
2022/01/16 12:33:27;;;;;;;35.83;23.10;;;8.60;99.90;;;;;;5032410;28;20750;-73
2022/01/16 12:35:58;;;;;;;35.20;22.47;;;8.60;99.90;;;;;;5035690;28;20409;-73
2022/01/16 12:39:11;;;;;;;34.80;24.20;;;8.60;99.90;;;;;;5048158;28;20432;-74
2022/01/16 12:41:46;;;;;;;32.20;22.40;;;8.60;99.90;;;;;;4997848;28;20542;-74
2022/01/16 12:44:14;;;;;;;31.87;22.17;;;8.60;99.90;;;;;;5042153;28;20459;-74
2022/01/16 12:46:46;;;;;;;34.67;24.00;;;8.60;99.90;;;;;;5044876;28;20424;-74
2022/01/16 12:49:12;;;;;;;34.10;22.50;;;8.70;99.90;;;;;;5047098;28;20420;-73
2022/01/16 12:51:40;;;;;;;37.77;23.67;;;8.70;99.90;;;;;;5017660;28;20455;-73
2022/01/16 12:54:15;;;;;;;38.50;23.07;;;8.60;99.90;;;;;;5035948;28;20181;-73
2022/01/16 12:56:42;;;;;;;41.07;24.50;;;8.60;99.90;;;;;;5034863;28;20404;-73
2022/01/16 12:59:11;;;;;;;34.70;22.73;;;8.40;99.90;;;;;;5034821;28;20495;-73
2022/01/16 13:01:45;;;;;;;40.23;25.70;;;8.50;99.90;;;;;;5034698;28;20429;-73
2022/01/16 13:04:31;;;;;;;39.13;22.10;;;8.50;99.90;;;;;;5035192;28;20409;-73
2022/01/16 13:07:03;;;;;;;39.17;23.83;;;8.50;99.90;;;;;;5042254;28;20469;-72
2022/01/16 13:09:29;;;;;;;37.63;22.33;;;8.40;99.90;;;;;;5036337;28;20510;-73
2022/01/16 13:11:59;;;;;;;33.07;21.70;;;8.40;99.90;;;;;;5051609;28;20498;-72
2022/01/16 13:14:30;;;;;;;38.53;22.77;;;8.40;99.90;;;;;;5026153;28;20423;-73
2022/01/16 13:16:59;;;;;;;34.37;21.97;;;8.30;99.90;;;;;;5054063;28;20743;-73
2022/01/16 13:19:26;;;;;;;34.47;21.60;;;8.40;99.90;;;;;;5053126;28;20812;-73
2022/01/16 13:22:05;;;;;;;36.37;22.60;;;8.40;99.90;;;;;;5050748;28;21122;-73
2022/01/16 13:24:44;;;;;;;67.37;39.17;;;8.30;99.90;;;;;;5054884;28;20419;-74
2022/01/16 13:27:21;;;;;;;197.87;107.63;;;8.30;99.90;;;;;;5035109;28;20499;-73
2022/01/16 13:29:50;;;;;;;45.00;26.83;;;8.30;99.90;;;;;;5025827;28;20431;-73
2022/01/16 13:32:22;;;;;;;34.10;22.57;;;8.30;99.90;;;;;;5054180;28;20474;-73